Time;durP1;ratioP1;P1;durP2;ratioP2;P2;SDS_P1;SDS_P2;PMS_P1;PMS_P2;Temp;Humidity;BMP_temperature;BMP_pressure;BME280_temperature;BME280_humidity;BME280_pressure;Samples;Min_cycle;Max_cycle;Signal;HPM_P1;HPM_P2
2024/02/05 00:01:46;;;;;;;1.77;0.90;;;;;;;11.03;60.87;95419.50;4916403;29;20298;-85
2024/02/05 00:04:12;;;;;;;1.83;1.30;;;;;;;11.03;60.95;95413.53;4917638;29;20214;-86
2024/02/05 00:06:38;;;;;;;2.60;1.10;;;;;;;11.01;60.93;95408.56;4922966;29;20241;-86
2024/02/05 00:09:05;;;;;;;3.47;1.33;;;;;;;11.06;60.61;95408.03;4919837;29;20222;-84
2024/02/05 00:11:31;;;;;;;2.80;1.10;;;;;;;11.07;60.63;95387.22;4912329;29;20226;-83
2024/02/05 00:13:59;;;;;;;1.37;1.03;;;;;;;11.06;60.26;95370.19;4901678;29;20693;-83
2024/02/05 00:16:26;;;;;;;1.83;1.00;;;;;;;11.06;60.19;95357.28;4917801;29;20199;-84
2024/02/05 00:18:53;;;;;;;2.90;1.07;;;;;;;11.03;59.93;95365.38;4916181;29;20210;-85
2024/02/05 00:21:19;;;;;;;3.13;1.20;;;;;;;10.98;59.69;95333.41;4917242;29;20225;-86
2024/02/05 00:23:45;;;;;;;2.27;1.10;;;;;;;10.99;59.62;95337.59;4910079;29;20206;-87
2024/02/05 00:26:12;;;;;;;5.07;1.30;;;;;;;11.00;59.36;95316.00;4917282;29;20222;-84
2024/02/05 00:28:39;;;;;;;1.30;0.97;;;;;;;11.07;59.23;95316.88;4916977;29;20206;-85
2024/02/05 00:31:06;;;;;;;1.90;1.17;;;;;;;11.14;59.43;95309.19;4916978;29;20250;-86
2024/02/05 00:33:33;;;;;;;3.60;1.20;;;;;;;11.15;58.96;95287.59;4914512;29;20234;-86
2024/02/05 00:35:59;;;;;;;3.03;1.10;;;;;;;11.15;58.83;95285.81;4916296;29;20206;-85
2024/02/05 00:38:26;;;;;;;3.27;1.13;;;;;;;11.15;58.94;95272.94;4917523;29;20209;-85
2024/02/05 00:40:52;;;;;;;2.17;1.20;;;;;;;11.16;58.73;95284.81;4916352;29;20233;-84
2024/02/05 00:43:19;;;;;;;4.43;1.27;;;;;;;11.18;58.69;95272.53;4916338;29;20260;-86
2024/02/05 00:45:45;;;;;;;3.93;1.50;;;;;;;11.17;58.58;95276.09;4916375;29;20202;-85
2024/02/05 00:48:13;;;;;;;1.67;1.20;;;;;;;11.20;58.48;95256.91;4916418;29;20206;-86
2024/02/05 00:50:41;;;;;;;2.80;1.20;;;;;;;11.22;58.21;95252.34;4914622;29;20250;-85
2024/02/05 00:53:07;;;;;;;1.87;1.20;;;;;;;11.22;58.24;95247.22;4916619;29;20772;-85
2024/02/05 00:55:34;;;;;;;3.57;1.57;;;;;;;11.20;58.14;95246.59;4917182;29;20206;-86
2024/02/05 00:58:00;;;;;;;4.10;1.30;;;;;;;11.21;57.88;95245.59;4916355;29;20202;-86
2024/02/05 01:00:27;;;;;;;1.43;1.10;;;;;;;11.24;57.71;95243.47;4917071;29;20285;-85
2024/02/05 01:02:53;;;;;;;5.00;1.60;;;;;;;11.25;57.91;95237.31;4917212;29;20411;-86
2024/02/05 01:05:21;;;;;;;5.27;1.47;;;;;;;11.25;57.84;95233.94;4914199;29;20210;-86
2024/02/05 01:07:47;;;;;;;2.13;1.20;;;;;;;11.26;57.88;95248.44;4916949;29;20217;-85
2024/02/05 01:10:14;;;;;;;5.27;1.50;;;;;;;11.19;57.99;95256.09;4916727;29;20274;-86
2024/02/05 01:12:40;;;;;;;2.17;1.43;;;;;;;11.20;57.96;95260.28;4914479;29;20628;-86
2024/02/05 01:15:07;;;;;;;3.50;1.67;;;;;;;11.17;57.75;95244.38;4915612;29;20206;-85
2024/02/05 01:17:33;;;;;;;2.87;1.30;;;;;;;11.16;57.84;95255.72;4916964;29;20195;-85
2024/02/05 01:20:00;;;;;;;3.23;1.60;;;;;;;11.08;57.95;95248.91;4909821;29;20255;-84
2024/02/05 01:22:28;;;;;;;3.17;1.80;;;;;;;11.14;58.01;95262.81;4910535;29;20222;-85
2024/02/05 01:24:54;;;;;;;3.57;1.73;;;;;;;11.09;58.08;95263.38;4916421;29;20217;-86
2024/02/05 01:27:21;;;;;;;3.03;1.80;;;;;;;11.08;57.85;95269.50;4916461;29;20214;-84
2024/02/05 01:29:47;;;;;;;1.60;1.47;;;;;;;11.06;57.83;95264.53;4916859;29;20743;-85
2024/02/05 01:32:14;;;;;;;3.83;1.67;;;;;;;11.04;58.21;95263.94;4915751;29;20214;-85
2024/02/05 01:34:42;;;;;;;3.17;1.70;;;;;;;11.04;57.98;95261.34;4916839;29;20206;-85
2024/02/05 01:37:08;;;;;;;2.47;1.70;;;;;;;11.05;58.32;95282.75;4916903;29;20198;-85
2024/02/05 01:39:36;;;;;;;4.37;1.77;;;;;;;11.10;58.22;95290.75;4914003;29;20624;-86
2024/02/05 01:42:03;;;;;;;6.37;2.10;;;;;;;11.11;58.03;95294.91;4915335;29;20230;-85
2024/02/05 01:44:29;;;;;;;4.97;2.00;;;;;;;11.11;58.10;95294.91;4915833;29;20258;-86
2024/02/05 01:46:57;;;;;;;4.70;1.83;;;;;;;11.15;58.00;95309.03;4916423;29;20209;-85
2024/02/05 01:49:24;;;;;;;3.70;1.97;;;;;;;11.15;58.04;95303.88;4916324;29;20210;-86
2024/02/05 01:51:53;;;;;;;6.60;1.80;;;;;;;11.18;58.03;95303.47;4915743;29;20327;-86
2024/02/05 01:54:21;;;;;;;2.77;1.83;;;;;;;11.17;57.97;95306.22;4913844;29;20283;-85
2024/02/05 01:56:51;;;;;;;3.63;1.97;;;;;;;11.15;58.01;95326.25;4916245;29;20286;-83
2024/02/05 01:59:18;;;;;;;3.33;1.73;;;;;;;11.15;58.19;95328.84;4921200;29;20319;-84
2024/02/05 02:01:45;;;;;;;2.87;2.20;;;;;;;11.20;58.13;95331.63;4916293;29;20738;-85
2024/02/05 02:04:12;;;;;;;4.47;1.77;;;;;;;11.25;58.29;95344.75;4916770;29;20198;-84
2024/02/05 02:06:41;;;;;;;3.27;1.90;;;;;;;11.22;58.52;95337.41;4916961;29;20561;-84
2024/02/05 02:09:10;;;;;;;3.67;2.00;;;;;;;11.17;58.54;95337.94;4916324;29;20688;-84
2024/02/05 02:11:39;;;;;;;4.57;2.07;;;;;;;11.22;58.39;95345.94;4906931;29;20794;-84
2024/02/05 02:14:06;;;;;;;7.33;2.10;;;;;;;11.15;58.46;95334.78;4909820;29;20195;-83
2024/02/05 02:16:33;;;;;;;5.27;2.47;;;;;;;11.12;58.58;95335.16;4906457;29;20263;-84
2024/02/05 02:19:03;;;;;;;6.10;2.13;;;;;;;11.08;58.80;95355.34;4906469;29;20209;-84
2024/02/05 02:21:33;;;;;;;4.23;2.50;;;;;;;10.99;58.97;95364.16;4914388;29;20257;-84
2024/02/05 02:24:01;;;;;;;5.33;2.70;;;;;;;10.99;59.07;95376.22;4916358;29;20289;-84
2024/02/05 02:26:27;;;;;;;5.87;2.83;;;;;;;10.90;59.22;95369.63;4914737;29;20218;-85
2024/02/05 02:28:54;;;;;;;6.23;2.30;;;;;;;10.94;59.36;95371.66;4916117;29;20272;-83
2024/02/05 02:31:25;;;;;;;5.33;2.47;;;;;;;10.90;59.21;95379.94;4917559;29;20206;-84
2024/02/05 02:33:59;;;;;;;4.27;2.30;;;;;;;10.97;59.25;95375.63;4917134;29;20581;-85
2024/02/05 02:36:33;;;;;;;5.30;3.33;;;;;;;10.95;59.19;95385.34;4915561;29;20198;-85
2024/02/05 02:39:05;;;;;;;4.93;2.80;;;;;;;10.86;59.51;95391.56;4915276;29;20209;-84
2024/02/05 02:41:36;;;;;;;5.00;2.67;;;;;;;10.87;59.40;95380.28;4916754;29;20873;-85
2024/02/05 02:44:03;;;;;;;5.87;2.80;;;;;;;10.76;59.45;95383.34;4913940;29;20206;-84
2024/02/05 02:46:30;;;;;;;6.43;2.87;;;;;;;10.76;59.41;95379.00;4916507;29;20884;-84
2024/02/05 02:48:57;;;;;;;4.07;2.27;;;;;;;10.77;59.54;95395.25;4919140;29;20213;-86
2024/02/05 02:51:24;;;;;;;3.97;2.33;;;;;;;10.79;59.37;95376.03;4918290;29;20233;-84
2024/02/05 02:53:50;;;;;;;5.77;2.87;;;;;;;10.77;59.25;95377.22;4917080;29;20210;-85
2024/02/05 02:56:18;;;;;;;6.47;3.00;;;;;;;10.77;59.30;95379.81;4918600;29;20208;-84
2024/02/05 02:58:45;;;;;;;6.00;2.97;;;;;;;10.79;59.04;95372.66;4915950;29;20708;-84
2024/02/05 03:01:11;;;;;;;9.03;2.83;;;;;;;10.75;59.26;95395.44;4917771;29;20229;-84
2024/02/05 03:03:38;;;;;;;11.03;3.17;;;;;;;10.70;59.07;95383.09;4917012;29;20222;-85
2024/02/05 03:06:05;;;;;;;6.77;2.80;;;;;;;10.71;59.38;95391.63;4917986;29;20202;-84
2024/02/05 03:08:31;;;;;;;9.37;3.60;;;;;;;10.76;58.98;95381.59;4916948;29;20213;-84
2024/02/05 03:10:57;;;;;;;7.43;2.97;;;;;;;10.75;58.90;95372.25;4911539;29;20283;-83
2024/02/05 03:13:25;;;;;;;5.93;3.03;;;;;;;10.71;59.10;95365.88;4916515;29;20225;-83
2024/02/05 03:15:52;;;;;;;8.83;2.97;;;;;;;10.75;59.12;95371.47;4916188;29;20210;-84
2024/02/05 03:18:19;;;;;;;8.93;3.47;;;;;;;10.64;59.36;95380.44;4917467;29;20240;-84
2024/02/05 03:20:46;;;;;;;4.67;3.03;;;;;;;10.66;59.15;95388.78;4916906;29;20198;-84
2024/02/05 03:23:12;;;;;;;5.57;2.80;;;;;;;10.71;59.20;95392.41;4917409;29;20233;-83
2024/02/05 03:25:40;;;;;;;6.13;2.90;;;;;;;10.66;59.33;95397.31;4920927;29;20269;-84
2024/02/05 03:28:07;;;;;;;6.13;3.30;;;;;;;10.66;59.39;95409.38;4922677;29;20214;-85
2024/02/05 03:30:36;;;;;;;5.43;2.97;;;;;;;10.69;59.41;95412.41;4920881;29;20224;-84
2024/02/05 03:33:04;;;;;;;9.60;3.27;;;;;;;10.66;59.55;95424.81;4921549;29;20233;-85
2024/02/05 03:35:30;;;;;;;7.07;3.03;;;;;;;10.69;59.57;95433.00;4921869;29;20194;-84
2024/02/05 03:37:58;;;;;;;8.83;3.00;;;;;;;10.65;59.63;95461.84;4920716;29;20226;-84
2024/02/05 03:40:25;;;;;;;8.97;3.60;;;;;;;10.62;59.66;95468.16;4921809;29;20212;-84
2024/02/05 03:42:53;;;;;;;6.43;3.50;;;;;;;10.56;60.32;95494.63;4923020;29;20581;-84
2024/02/05 03:45:20;;;;;;;7.80;3.20;;;;;;;10.49;60.54;95510.97;4920441;29;20206;-84
2024/02/05 03:47:48;;;;;;;6.30;3.20;;;;;;;10.47;60.70;95520.63;4919095;29;20217;-85
2024/02/05 03:50:15;;;;;;;7.80;3.10;;;;;;;10.43;61.25;95539.97;4924635;29;20781;-86
2024/02/05 03:52:44;;;;;;;5.23;2.80;;;;;;;10.43;61.35;95563.13;4920008;29;20440;-84
2024/02/05 03:55:11;;;;;;;4.93;3.27;;;;;;;10.41;61.30;95581.31;4920622;29;20207;-84
2024/02/05 03:57:41;;;;;;;9.03;3.43;;;;;;;10.34;61.93;95606.97;4920043;29;20202;-84
2024/02/05 04:00:09;;;;;;;6.90;2.67;;;;;;;10.20;62.77;95635.25;4920358;29;20202;-84
2024/02/05 04:02:35;;;;;;;8.97;3.33;;;;;;;10.17;63.14;95651.00;4918812;29;20285;-84
2024/02/05 04:05:03;;;;;;;4.83;2.83;;;;;;;10.14;63.16;95685.59;4919166;29;20202;-85
2024/02/05 04:07:30;;;;;;;7.10;3.13;;;;;;;10.14;63.26;95687.34;4920145;29;20423;-84
2024/02/05 04:09:56;;;;;;;7.37;3.20;;;;;;;10.18;63.13;95709.19;4920332;29;20723;-84
2024/02/05 04:12:22;;;;;;;6.73;3.47;;;;;;;10.15;63.41;95710.34;4919672;29;20222;-83
2024/02/05 04:14:49;;;;;;;6.43;2.80;;;;;;;10.17;63.30;95712.75;4919919;29;20229;-84
2024/02/05 04:17:15;;;;;;;9.87;3.60;;;;;;;10.15;63.16;95715.50;4919439;29;20456;-85
2024/02/05 04:19:43;;;;;;;5.07;3.00;;;;;;;10.03;63.26;95709.09;4917954;29;20202;-84
2024/02/05 04:22:11;;;;;;;9.47;3.07;;;;;;;9.96;63.47;95711.56;4919367;29;20237;-85
2024/02/05 04:24:37;;;;;;;6.67;2.83;;;;;;;10.03;63.25;95703.97;4919735;29;20269;-83
2024/02/05 04:27:04;;;;;;;3.43;3.03;;;;;;;10.00;63.37;95715.41;4919280;29;20202;-84
2024/02/05 04:29:30;;;;;;;7.33;2.70;;;;;;;9.97;63.27;95704.66;4919146;29;20206;-83
2024/02/05 04:31:58;;;;;;;4.27;2.80;;;;;;;9.84;63.59;95717.25;4918952;29;20631;-85
2024/02/05 04:34:24;;;;;;;5.97;3.10;;;;;;;9.82;63.75;95725.13;4918832;29;20229;-84
2024/02/05 04:36:52;;;;;;;6.27;2.57;;;;;;;9.81;63.81;95733.84;4917892;29;20210;-83
2024/02/05 04:39:20;;;;;;;4.40;2.30;;;;;;;9.82;63.93;95742.31;4919248;29;20669;-83
2024/02/05 04:41:47;;;;;;;3.73;2.37;;;;;;;9.74;64.15;95745.75;4919930;29;20238;-84
2024/02/05 04:44:14;;;;;;;5.77;2.07;;;;;;;9.82;64.01;95761.13;4920106;29;20258;-84
2024/02/05 04:46:40;;;;;;;4.97;2.00;;;;;;;9.81;63.96;95761.31;4924328;29;20269;-83
2024/02/05 04:49:07;;;;;;;2.83;1.93;;;;;;;9.75;64.34;95767.94;4919857;29;20898;-85
2024/02/05 04:51:33;;;;;;;3.13;1.83;;;;;;;9.78;64.29;95767.59;4917248;29;20210;-84
2024/02/05 04:54:00;;;;;;;5.27;1.97;;;;;;;9.77;64.39;95780.63;4919132;29;20229;-83
2024/02/05 04:56:27;;;;;;;3.00;1.90;;;;;;;9.76;64.21;95772.09;4918669;29;20894;-85
2024/02/05 04:58:54;;;;;;;3.87;1.60;;;;;;;9.67;64.65;95788.50;4919063;29;20206;-84
2024/02/05 05:01:20;;;;;;;3.77;1.73;;;;;;;9.60;65.11;95810.72;4917887;29;20210;-83
2024/02/05 05:03:47;;;;;;;3.93;1.70;;;;;;;9.56;65.50;95843.66;4911847;29;20230;-85
2024/02/05 05:06:13;;;;;;;3.47;1.77;;;;;;;9.47;66.17;95862.63;4908291;29;20202;-85
2024/02/05 05:08:40;;;;;;;2.80;1.50;;;;;;;9.44;66.28;95875.78;4913905;29;20207;-85
2024/02/05 05:11:06;;;;;;;3.23;1.90;;;;;;;9.44;66.21;95883.50;4912422;29;20684;-85
2024/02/05 05:13:34;;;;;;;2.83;1.60;;;;;;;9.38;66.48;95884.16;4909167;29;20229;-86
2024/02/05 05:16:02;;;;;;;4.40;2.00;;;;;;;9.47;66.55;95890.09;4915225;29;20198;-85
2024/02/05 05:18:28;;;;;;;5.50;2.00;;;;;;;9.39;66.25;95887.53;4914711;29;20233;-85
2024/02/05 05:20:54;;;;;;;3.17;1.77;;;;;;;9.32;66.54;95895.88;4914415;29;20210;-85
2024/02/05 05:23:21;;;;;;;3.17;1.70;;;;;;;9.39;66.44;95887.53;4913809;29;20234;-85
2024/02/05 05:25:52;;;;;;;7.67;2.00;;;;;;;9.35;66.91;95910.19;4913985;29;20213;-85
2024/02/05 05:28:20;;;;;;;2.80;1.80;;;;;;;9.30;66.46;95894.44;4922910;29;20348;-85
2024/02/05 05:30:48;;;;;;;2.93;1.70;;;;;;;9.34;66.89;95906.81;4914808;29;20217;-85
2024/02/05 05:33:15;;;;;;;4.10;2.03;;;;;;;9.38;66.53;95909.06;4915105;29;20767;-85
2024/02/05 05:35:41;;;;;;;4.13;1.57;;;;;;;9.45;66.63;95904.84;4916362;29;20209;-84
2024/02/05 05:38:08;;;;;;;3.67;1.83;;;;;;;9.34;66.83;95906.81;4915650;29;20221;-86
2024/02/05 05:40:34;;;;;;;4.97;1.87;;;;;;;9.31;67.01;95929.44;4912568;29;20787;-85
2024/02/05 05:43:00;;;;;;;3.70;1.70;;;;;;;9.24;67.40;95952.38;4915363;29;20226;-84
2024/02/05 05:45:29;;;;;;;9.23;7.33;;;;;;;9.14;67.92;95968.91;4915234;29;20241;-86
2024/02/05 05:48:01;;;;;;;6.80;5.47;;;;;;;9.17;68.19;95981.47;4909071;29;20210;-85
2024/02/05 05:50:27;;;;;;;4.63;2.70;;;;;;;9.23;67.93;95968.00;4906397;29;20222;-85
2024/02/05 05:52:55;;;;;;;3.67;1.87;;;;;;;9.21;67.91;95972.47;4904588;29;20222;-85
2024/02/05 05:55:25;;;;;;;3.40;1.50;;;;;;;9.19;67.79;95975.19;4903977;29;20273;-85
2024/02/05 05:57:52;;;;;;;3.07;1.47;;;;;;;9.08;68.56;96003.75;4911540;29;20207;-85
2024/02/05 06:00:21;;;;;;;4.17;2.00;;;;;;;9.00;69.61;96044.81;4908272;29;20704;-84
2024/02/05 06:02:48;;;;;;;4.03;1.67;;;;;;;8.95;69.31;96036.78;4907636;29;20237;-85
2024/02/05 06:05:16;;;;;;;3.27;1.50;;;;;;;9.02;69.36;96035.22;4906969;29;20889;-84
2024/02/05 06:07:44;;;;;;;4.20;1.40;;;;;;;9.06;69.12;96049.31;4907897;29;20202;-83
2024/02/05 06:10:11;;;;;;;4.00;3.03;;;;;;;9.13;69.08;96052.88;4912009;29;20202;-84
2024/02/05 06:12:38;;;;;;;5.77;4.57;;;;;;;9.11;69.63;96059.13;4920533;29;20250;-84
2024/02/05 06:15:07;;;;;;;3.27;2.00;;;;;;;8.95;71.35;96106.91;4919181;29;20218;-82
2024/02/05 06:17:34;;;;;;;3.03;1.57;;;;;;;8.90;70.93;96106.56;4914041;29;20197;-83
2024/02/05 06:20:05;;;;;;;2.93;1.47;;;;;;;8.95;71.01;96111.25;4928368;29;20230;-85
2024/02/05 06:22:35;;;;;;;3.53;1.50;;;;;;;8.95;71.18;96106.91;4912954;29;20230;-84
2024/02/05 06:25:02;;;;;;;2.90;1.60;;;;;;;8.92;72.19;96143.16;4909974;29;20230;-83
2024/02/05 06:27:28;;;;;;;4.67;3.20;;;;;;;8.91;71.63;96133.06;4917879;29;20206;-85
2024/02/05 06:29:55;;;;;;;2.50;1.60;;;;;;;8.86;72.29;96156.59;4927338;29;20281;-80
2024/02/05 06:32:21;;;;;;;1.60;1.50;;;;;;;8.86;72.40;96163.50;4919663;29;20222;-81
2024/02/05 06:34:49;;;;;;;3.30;1.53;;;;;;;8.87;72.22;96154.84;4918409;29;20206;-82
2024/02/05 06:37:16;;;;;;;3.23;1.40;;;;;;;8.88;71.66;96135.91;4920233;29;20292;-81
2024/02/05 06:39:43;;;;;;;2.13;1.37;;;;;;;8.90;71.44;96127.09;4929966;29;20237;-84
2024/02/05 06:42:10;;;;;;;1.67;1.43;;;;;;;8.90;71.43;96123.72;4919049;29;20230;-84
2024/02/05 06:44:37;;;;;;;1.87;1.50;;;;;;;8.93;71.33;96113.16;4909835;29;20213;-85
2024/02/05 06:47:04;;;;;;;1.90;1.43;;;;;;;8.98;70.85;96109.19;4918535;29;20210;-85
2024/02/05 06:49:30;;;;;;;3.53;1.67;;;;;;;8.98;70.56;96104.06;4919949;29;20206;-85
2024/02/05 06:51:57;;;;;;;3.17;1.50;;;;;;;8.99;70.75;96110.00;4919599;29;20237;-86
2024/02/05 06:54:25;;;;;;;1.70;1.60;;;;;;;8.99;70.45;96095.38;4919731;29;20217;-84
2024/02/05 06:56:52;;;;;;;6.23;1.80;;;;;;;8.97;70.49;96097.31;4911693;29;20293;-85
2024/02/05 06:59:19;;;;;;;3.97;1.90;;;;;;;8.91;70.51;96099.66;4919637;29;20210;-84
2024/02/05 07:01:45;;;;;;;4.17;1.87;;;;;;;8.94;70.60;96100.16;4917877;29;20207;-84
2024/02/05 07:04:12;;;;;;;3.70;1.60;;;;;;;8.89;70.85;96117.78;4919835;29;20237;-85
2024/02/05 07:06:38;;;;;;;3.57;1.50;;;;;;;8.91;70.93;96121.03;4921772;29;20209;-84
2024/02/05 07:09:05;;;;;;;1.97;1.53;;;;;;;9.12;70.15;96110.38;4919938;29;20215;-85
2024/02/05 07:11:31;;;;;;;3.63;1.80;;;;;;;9.07;70.35;96104.06;4920217;29;20198;-85
2024/02/05 07:13:59;;;;;;;2.50;1.80;;;;;;;9.04;70.40;96114.69;4919765;29;20454;-85
2024/02/05 07:16:25;;;;;;;3.90;1.93;;;;;;;9.05;70.51;96116.25;4918696;29;20261;-85
2024/02/05 07:18:52;;;;;;;2.70;1.60;;;;;;;9.06;70.42;96113.53;4916818;29;20217;-85
2024/02/05 07:21:19;;;;;;;1.83;1.63;;;;;;;9.10;70.36;96109.72;4920291;29;20285;-86
2024/02/05 07:23:45;;;;;;;1.80;1.57;;;;;;;9.06;70.32;96110.16;4920753;29;20226;-86
2024/02/05 07:26:11;;;;;;;2.57;1.60;;;;;;;8.99;70.75;96125.41;4920528;29;20202;-86
2024/02/05 07:28:38;;;;;;;2.57;1.40;;;;;;;8.98;70.96;96131.50;4920008;29;20201;-86
2024/02/05 07:31:06;;;;;;;2.33;1.50;;;;;;;8.97;71.36;96146.09;4920390;29;20233;-85
2024/02/05 07:33:32;;;;;;;4.00;1.70;;;;;;;8.99;71.10;96144.19;4918602;29;20233;-85
2024/02/05 07:35:59;;;;;;;2.00;1.47;;;;;;;9.00;71.05;96145.78;4920655;29;20240;-85
2024/02/05 07:38:26;;;;;;;2.67;1.60;;;;;;;9.02;71.39;96145.66;4920254;29;20233;-82
2024/02/05 07:40:52;;;;;;;2.67;1.43;;;;;;;9.05;71.63;96155.59;4924725;29;20210;-82
2024/02/05 07:43:18;;;;;;;2.27;1.40;;;;;;;9.07;71.73;96160.56;4914352;29;20226;-82
2024/02/05 07:45:45;;;;;;;2.17;1.53;;;;;;;8.93;72.05;96167.09;4914926;29;20466;-83
2024/02/05 07:48:13;;;;;;;1.70;1.50;;;;;;;8.96;72.09;96172.72;4925103;29;20198;-83
2024/02/05 07:50:39;;;;;;;2.07;1.53;;;;;;;9.11;71.87;96169.59;4921514;29;20202;-85
2024/02/05 07:53:07;;;;;;;2.43;1.50;;;;;;;9.11;72.07;96172.16;4914791;29;20221;-83
2024/02/05 07:55:34;;;;;;;2.83;1.60;;;;;;;9.24;71.47;96160.50;4919970;29;20202;-84
2024/02/05 07:58:00;;;;;;;1.90;1.80;;;;;;;9.29;71.09;96137.72;4920064;29;20202;-84
2024/02/05 08:00:26;;;;;;;1.60;1.50;;;;;;;9.35;70.82;96123.47;4922393;29;20676;-83
2024/02/05 08:02:53;;;;;;;3.20;1.60;;;;;;;9.83;69.99;96106.53;4923826;29;20226;-82
2024/02/05 08:05:21;;;;;;;1.80;1.50;;;;;;;10.45;67.88;96027.09;4922415;29;20254;-84
2024/02/05 08:07:47;;;;;;;2.30;1.70;;;;;;;10.84;66.22;95962.75;4922027;29;20206;-85
2024/02/05 08:10:14;;;;;;;2.63;1.60;;;;;;;11.11;65.15;95900.44;4921232;29;20270;-85
2024/02/05 08:12:43;;;;;;;2.07;1.87;;;;;;;11.24;63.78;95835.41;4905647;29;20219;-84
2024/02/05 08:15:21;;;;;;;5.37;1.73;;;;;;;11.48;63.10;95806.84;4903430;29;20203;-84
2024/02/05 08:17:48;;;;;;;5.40;1.83;;;;;;;11.69;62.62;95783.75;4918525;29;20566;-84
2024/02/05 08:20:15;;;;;;;2.47;1.90;;;;;;;11.89;61.94;95744.53;4924867;29;20680;-84
2024/02/05 08:22:45;;;;;;;1.90;1.50;;;;;;;12.17;60.98;95708.50;4923166;29;20229;-84
2024/02/05 08:25:12;;;;;;;2.73;2.00;;;;;;;12.36;60.27;95671.75;4926386;29;20206;-85
2024/02/05 08:27:38;;;;;;;1.83;1.57;;;;;;;12.35;59.87;95642.53;4925005;29;20206;-84
2024/02/05 08:30:05;;;;;;;2.23;1.87;;;;;;;12.53;59.28;95618.03;4925851;29;20221;-85
2024/02/05 08:32:32;;;;;;;2.30;1.87;;;;;;;12.64;59.04;95607.22;4924207;29;20226;-85
2024/02/05 08:34:58;;;;;;;3.33;1.77;;;;;;;12.91;58.65;95583.13;4907473;29;20214;-84
2024/02/05 08:37:25;;;;;;;3.17;1.73;;;;;;;13.20;57.96;95555.47;4912873;29;20241;-85
2024/02/05 08:39:53;;;;;;;2.83;1.80;;;;;;;13.21;57.34;95523.44;4920876;29;20206;-85
2024/02/05 08:42:19;;;;;;;2.60;1.67;;;;;;;13.32;56.92;95499.59;4925262;29;20214;-84
2024/02/05 08:44:46;;;;;;;2.10;1.70;;;;;;;13.54;56.51;95484.72;4925944;29;20632;-83
2024/02/05 08:47:14;;;;;;;2.17;1.80;;;;;;;13.65;55.91;95459.09;4925997;29;20238;-84
2024/02/05 08:49:41;;;;;;;3.90;1.53;;;;;;;13.77;55.55;95436.78;4915728;29;20687;-84
2024/02/05 08:52:07;;;;;;;5.90;1.57;;;;;;;13.68;55.36;95421.66;4924343;29;20249;-85
2024/02/05 08:54:35;;;;;;;1.77;1.60;;;;;;;13.39;55.46;95420.25;4919370;29;20718;-85
2024/02/05 08:57:06;;;;;;;2.23;1.73;;;;;;;13.42;55.75;95432.78;4924782;29;20278;-84
2024/02/05 08:59:32;;;;;;;2.40;1.50;;;;;;;13.32;55.77;95433.16;4923797;29;20199;-84
2024/02/05 09:02:01;;;;;;;1.67;1.37;;;;;;;13.45;55.65;95424.66;4924015;29;20244;-84
2024/02/05 09:04:28;;;;;;;2.27;1.50;;;;;;;13.37;55.38;95399.75;4922539;29;20222;-85
2024/02/05 09:06:54;;;;;;;3.77;1.70;;;;;;;13.40;55.12;95383.06;4923560;29;20198;-85
2024/02/05 09:09:21;;;;;;;2.97;1.63;;;;;;;13.51;54.68;95371.31;4921077;29;20215;-84
2024/02/05 09:11:47;;;;;;;3.50;1.87;;;;;;;13.46;54.28;95348.66;4918952;29;20265;-85
2024/02/05 09:14:15;;;;;;;8.97;2.03;;;;;;;13.61;53.83;95322.56;4922138;29;20205;-84
2024/02/05 09:16:41;;;;;;;2.47;1.40;;;;;;;13.75;53.67;95308.59;4924254;29;20210;-84
2024/02/05 09:19:08;;;;;;;1.73;1.40;;;;;;;14.05;53.05;95283.81;4923025;29;20195;-84
2024/02/05 09:21:34;;;;;;;3.33;1.63;;;;;;;14.16;52.48;95253.91;4915415;29;20202;-83
2024/02/05 09:24:01;;;;;;;3.97;1.60;;;;;;;14.25;52.41;95257.81;4913983;29;20747;-83
2024/02/05 09:26:27;;;;;;;3.67;1.25;;;;;;;14.20;51.95;95226.59;4920759;29;20221;-84
2024/02/05 09:28:54;;;;;;;6.32;1.85;;;;;;;14.18;51.56;95205.31;4921257;29;20209;-84
2024/02/05 09:31:22;;;;;;;3.67;1.70;;;;;;;14.28;51.41;95210.81;4922838;29;20207;-83
2024/02/05 09:33:48;;;;;;;5.25;1.83;;;;;;;14.06;51.08;95179.25;4913839;29;20226;-84
2024/02/05 09:36:15;;;;;;;6.30;1.83;;;;;;;13.90;50.67;95133.16;4911570;29;20213;-84
2024/02/05 09:38:41;;;;;;;4.57;2.17;;;;;;;13.81;50.79;95145.56;4915296;29;20210;-84
2024/02/05 09:41:12;;;;;;;8.70;2.30;;;;;;;14.01;50.68;95136.91;4903098;29;20604;-82
2024/02/05 09:43:40;;;;;;;6.43;2.15;;;;;;;14.16;50.06;95121.88;4919476;29;20234;-83
2024/02/05 09:46:14;;;;;;;6.90;2.20;;;;;;;14.22;49.51;95089.97;4916720;29;20210;-84
2024/02/05 09:48:43;;;;;;;6.45;2.17;;;;;;;14.03;49.29;95050.28;4909406;29;20575;-83
2024/02/05 09:51:12;;;;;;;8.20;2.75;;;;;;;14.02;49.64;95076.38;4920364;29;20209;-83
2024/02/05 09:53:40;;;;;;;6.00;2.33;;;;;;;14.04;49.63;95087.31;4916311;29;20234;-82
2024/02/05 09:56:08;;;;;;;5.80;2.33;;;;;;;14.26;49.52;95079.94;4911537;29;20221;-83
2024/02/05 09:58:35;;;;;;;6.15;2.53;;;;;;;14.33;49.20;95055.59;4919475;29;20213;-83
2024/02/05 10:01:02;;;;;;;8.18;2.65;;;;;;;14.38;48.31;95018.72;4921655;29;20225;-83
2024/02/05 10:03:31;;;;;;;8.00;2.47;;;;;;;14.47;48.68;95030.41;4916954;29;20286;-84
2024/02/05 10:06:04;;;;;;;7.43;2.30;;;;;;;14.39;48.57;95020.28;4904972;29;20406;-83
2024/02/05 10:08:32;;;;;;;11.73;2.80;;;;;;;14.38;48.99;95055.75;4919398;29;20216;-84
2024/02/05 10:11:00;;;;;;;10.23;2.80;;;;;;;14.50;48.45;95027.38;4920185;29;20194;-84
2024/02/05 10:13:28;;;;;;;7.78;2.97;;;;;;;14.35;48.40;95019.13;4918075;29;20602;-84
2024/02/05 10:15:54;;;;;;;7.85;2.63;;;;;;;14.32;48.58;95029.91;4917285;29;20199;-83
2024/02/05 10:18:20;;;;;;;13.27;3.40;;;;;;;14.39;48.52;95022.88;4921062;29;20547;-84
2024/02/05 10:20:47;;;;;;;10.10;3.17;;;;;;;14.25;48.50;95011.03;4908374;29;20207;-85
2024/02/05 10:23:15;;;;;;;4.93;2.75;;;;;;;14.35;48.46;95014.75;4912703;29;20226;-83
2024/02/05 10:25:42;;;;;;;14.77;3.45;;;;;;;14.42;47.97;94999.19;4916845;29;20230;-83
2024/02/05 10:28:08;;;;;;;5.47;2.65;;;;;;;14.23;47.72;94956.13;4934801;29;20202;-83
2024/02/05 10:30:34;;;;;;;4.90;2.60;;;;;;;14.38;47.64;94961.72;4915020;29;20694;-84
2024/02/05 10:33:04;;;;;;;10.85;2.78;;;;;;;14.56;47.59;94955.78;4916333;29;20229;-83
2024/02/05 10:35:30;;;;;;;9.57;3.00;;;;;;;14.74;47.34;94955.78;4898911;29;20692;-83
2024/02/05 10:38:07;;;;;;;8.95;2.85;;;;;;;14.84;46.79;94932.72;4905173;29;20209;-84
2024/02/05 10:40:36;;;;;;;9.02;3.30;;;;;;;14.88;46.55;94931.28;4915332;29;20201;-84
2024/02/05 10:43:03;;;;;;;10.32;3.15;;;;;;;15.10;46.66;94921.22;4912290;29;20222;-84
2024/02/05 10:45:31;;;;;;;11.43;3.10;;;;;;;15.08;46.21;94892.94;4917141;29;20228;-84
2024/02/05 10:47:57;;;;;;;10.80;2.75;;;;;;;15.00;46.51;94889.88;4918650;29;20205;-84
2024/02/05 10:50:24;;;;;;;10.65;2.80;;;;;;;15.01;46.75;94897.41;4912872;29;20202;-85
2024/02/05 10:52:50;;;;;;;7.30;3.05;;;;;;;15.13;46.27;94889.69;4920138;29;20614;-84
2024/02/05 10:55:18;;;;;;;7.95;3.50;;;;;;;15.15;46.05;94865.13;4919137;29;20198;-84
2024/02/05 10:57:47;;;;;;;7.07;3.08;;;;;;;15.11;45.88;94848.41;4919636;29;20217;-83
2024/02/05 11:00:15;;;;;;;8.20;2.88;;;;;;;14.92;45.95;94828.75;4907415;29;20199;-83
2024/02/05 11:02:44;;;;;;;8.43;2.35;;;;;;;14.73;46.05;94845.38;4908262;29;20419;-83
2024/02/05 11:05:12;;;;;;;10.32;2.75;;;;;;;14.77;46.47;94862.84;4920829;29;20226;-83
2024/02/05 11:07:53;;;;;;;4.75;2.53;;;;;;;14.85;46.49;94892.84;4915260;29;20661;-83
2024/02/05 11:10:22;;;;;;;7.68;2.72;;;;;;;15.01;46.69;94887.03;4909976;29;20936;-85
2024/02/05 11:12:55;;;;;;;10.35;2.72;;;;;;;15.19;46.48;94884.41;4914809;29;20754;-84
2024/02/05 11:15:22;;;;;;;5.55;2.45;;;;;;;15.23;46.47;94876.94;4925837;29;20198;-86
2024/02/05 11:17:51;;;;;;;9.93;2.90;;;;;;;15.35;46.16;94858.84;4910464;29;20860;-85
2024/02/05 11:20:19;;;;;;;7.25;2.35;;;;;;;15.33;45.79;94821.94;4918103;29;20631;-82
2024/02/05 11:22:50;;;;;;;7.78;2.72;;;;;;;15.35;45.80;94822.53;4920753;29;20281;-83
2024/02/05 11:25:17;;;;;;;7.55;2.55;;;;;;;15.45;45.82;94815.75;4918445;29;20245;-84
2024/02/05 11:27:47;;;;;;;10.57;2.97;;;;;;;15.54;45.49;94801.44;4920683;29;20810;-85
2024/02/05 11:30:18;;;;;;;8.77;2.60;;;;;;;15.58;45.13;94781.06;4920901;29;20230;-85
2024/02/05 11:32:44;;;;;;;6.15;2.30;;;;;;;15.29;45.08;94753.38;4920092;29;20259;-84
2024/02/05 11:35:14;;;;;;;7.22;2.55;;;;;;;15.19;45.64;94782.47;4918229;29;20202;-84
2024/02/05 11:37:43;;;;;;;7.18;2.35;;;;;;;15.31;45.68;94795.44;4909975;29;20231;-83